Time;durP1;ratioP1;P1;durP2;ratioP2;P2;SDS_P1;SDS_P2;PMS_P1;PMS_P2;Temp;Humidity;BMP_temperature;BMP_pressure;BME280_temperature;BME280_humidity;BME280_pressure;Samples;Min_cycle;Max_cycle;Signal;HPM_P1;HPM_P2
2024/02/12 00:01:40;;;;;;;0.65;0.55;;;;;;;;;;4965407;29;20351;-90
2024/02/12 00:04:45;;;;;;;0.50;0.50;;;;;;;;;;4965678;29;20221;-90
2024/02/12 00:07:50;;;;;;;0.63;0.63;;;;;;;;;;4967272;28;20209;-92
2024/02/12 00:10:55;;;;;;;1.05;0.63;;;;;;;;;;4965563;29;20195;-91
2024/02/12 00:14:04;;;;;;;1.95;0.88;;;;;;;;;;4966241;29;20210;-89
2024/02/12 00:17:14;;;;;;;0.98;0.80;;;;;;;;;;4964550;29;20210;-91
2024/02/12 00:20:20;;;;;;;0.82;0.82;;;;;;;;;;4965184;29;20271;-91
2024/02/12 00:23:25;;;;;;;1.27;1.10;;;;;;;;;;4966205;28;20330;-91
2024/02/12 00:26:32;;;;;;;0.80;0.80;;;;;;;;;;4965154;28;20197;-90
2024/02/12 00:29:38;;;;;;;0.57;0.57;;;;;;;;;;4964668;29;20202;-90
2024/02/12 00:32:46;;;;;;;0.40;0.40;;;;;;;;;;4963515;28;20215;-91
2024/02/12 00:35:51;;;;;;;0.65;0.55;;;;;;;;;;4965163;29;20209;-91
2024/02/12 00:38:56;;;;;;;2.05;1.15;;;;;;;;;;4965572;29;20700;-89
2024/02/12 00:42:03;;;;;;;0.70;0.70;;;;;;;;;;4965135;29;20213;-91
2024/02/12 00:45:08;;;;;;;1.27;0.98;;;;;;;;;;4963660;29;20214;-89
2024/02/12 00:48:15;;;;;;;0.90;0.90;;;;;;;;;;4965635;29;20201;-91
2024/02/12 00:51:21;;;;;;;0.47;0.47;;;;;;;;;;4970817;28;20186;-93
2024/02/12 00:54:27;;;;;;;1.25;1.15;;;;;;;;;;4984965;28;20234;-91
2024/02/12 00:57:33;;;;;;;0.70;0.70;;;;;;;;;;4984795;28;20198;-92
2024/02/12 01:00:38;;;;;;;0.40;0.40;;;;;;;;;;4983252;28;20190;-91
2024/02/12 01:03:46;;;;;;;0.90;0.90;;;;;;;;;;4983356;28;20233;-89
2024/02/12 01:06:51;;;;;;;0.50;0.50;;;;;;;;;;4983934;28;20217;-93
2024/02/12 01:09:56;;;;;;;0.85;0.82;;;;;;;;;;4984378;28;20542;-91
2024/02/12 01:13:01;;;;;;;3.30;0.80;;;;;;;;;;4984683;28;20177;-90
2024/02/12 01:16:07;;;;;;;0.30;0.30;;;;;;;;;;4985315;28;20197;-91
2024/02/12 01:19:14;;;;;;;0.70;0.70;;;;;;;;;;4984510;28;20209;-90
2024/02/12 01:22:20;;;;;;;1.40;0.73;;;;;;;;;;4984696;28;20212;-91
2024/02/12 01:25:25;;;;;;;2.60;1.05;;;;;;;;;;4984721;28;20269;-90
2024/02/12 01:28:31;;;;;;;2.28;1.48;;;;;;;;;;4984166;28;20564;-90
2024/02/12 01:31:37;;;;;;;2.17;0.70;;;;;;;;;;4984515;28;20233;-91
2024/02/12 01:34:44;;;;;;;2.30;0.95;;;;;;;;;;4964563;29;20194;-88
2024/02/12 01:37:51;;;;;;;0.43;0.43;;;;;;;;;;4965212;29;20288;-90
2024/02/12 01:40:56;;;;;;;0.68;0.68;;;;;;;;;;4965777;28;20213;-90
2024/02/12 01:44:01;;;;;;;1.10;1.00;;;;;;;;;;4966016;28;20214;-91
2024/02/12 01:47:07;;;;;;;1.48;1.02;;;;;;;;;;4969213;29;20677;-92
2024/02/12 01:50:15;;;;;;;0.60;0.60;;;;;;;;;;4972172;28;20189;-90
2024/02/12 01:53:21;;;;;;;0.80;0.68;;;;;;;;;;4988354;28;20185;-90
2024/02/12 01:56:27;;;;;;;0.95;0.95;;;;;;;;;;4988812;28;20197;-89
2024/02/12 01:59:32;;;;;;;1.27;0.93;;;;;;;;;;4989209;28;20210;-89
2024/02/12 02:02:43;;;;;;;0.50;0.50;;;;;;;;;;4988073;28;20206;-91
2024/02/12 02:05:52;;;;;;;0.60;0.60;;;;;;;;;;4987751;28;20190;-89
2024/02/12 02:08:58;;;;;;;0.77;0.77;;;;;;;;;;4988408;28;20197;-90
2024/02/12 02:12:03;;;;;;;3.88;1.67;;;;;;;;;;4988600;28;20185;-90
2024/02/12 02:15:10;;;;;;;0.50;0.50;;;;;;;;;;4989729;28;20292;-90
2024/02/12 02:18:19;;;;;;;1.10;0.77;;;;;;;;;;4989849;28;20329;-93
2024/02/12 02:21:26;;;;;;;8.20;2.17;;;;;;;;;;4986957;28;20217;-90
2024/02/12 02:24:33;;;;;;;1.33;0.85;;;;;;;;;;4988804;28;20194;-91
2024/02/12 02:27:38;;;;;;;0.40;0.40;;;;;;;;;;4988654;28;20190;-90
2024/02/12 02:30:43;;;;;;;1.05;1.00;;;;;;;;;;4989352;28;20266;-91
2024/02/12 02:33:49;;;;;;;0.40;0.40;;;;;;;;;;4987283;28;20577;-92
2024/02/12 02:36:54;;;;;;;0.77;0.70;;;;;;;;;;4988154;28;20688;-90
2024/02/12 02:40:02;;;;;;;1.10;1.00;;;;;;;;;;4988592;28;20173;-90
2024/02/12 02:43:07;;;;;;;0.60;0.60;;;;;;;;;;4989208;28;20222;-91
2024/02/12 02:46:13;;;;;;;1.33;0.93;;;;;;;;;;4989180;28;20230;-92
2024/02/12 02:49:18;;;;;;;0.40;0.40;;;;;;;;;;4987056;28;20193;-90
2024/02/12 02:52:24;;;;;;;0.95;0.82;;;;;;;;;;4987464;28;20205;-92
2024/02/12 02:55:31;;;;;;;1.23;0.75;;;;;;;;;;4987651;28;20185;-90
2024/02/12 02:58:37;;;;;;;0.90;0.75;;;;;;;;;;4988751;28;20275;-89
2024/02/12 03:01:41;;;;;;;0.90;0.77;;;;;;;;;;4987507;28;20221;-92
2024/02/12 03:04:46;;;;;;;0.40;0.40;;;;;;;;;;4971714;28;20222;-91
2024/02/12 03:07:51;;;;;;;1.58;0.68;;;;;;;;;;4967147;28;20203;-92
2024/02/12 03:11:00;;;;;;;0.68;0.68;;;;;;;;;;4966079;28;20662;-89
2024/02/12 03:14:06;;;;;;;0.60;0.60;;;;;;;;;;4967847;29;20323;-91
2024/02/12 03:17:12;;;;;;;1.30;0.85;;;;;;;;;;4967045;28;20210;-90
2024/02/12 03:20:17;;;;;;;0.60;0.55;;;;;;;;;;4967003;29;20198;-91
2024/02/12 03:23:22;;;;;;;0.57;0.57;;;;;;;;;;4967158;29;20217;-90
2024/02/12 03:26:30;;;;;;;0.77;0.77;;;;;;;;;;4966160;29;20210;-88
2024/02/12 03:29:36;;;;;;;0.52;0.52;;;;;;;;;;4973380;28;20206;-90
2024/02/12 03:32:41;;;;;;;0.85;0.70;;;;;;;;;;4986288;28;20193;-92
2024/02/12 03:35:46;;;;;;;0.40;0.40;;;;;;;;;;4986097;28;20204;-92
2024/02/12 03:38:52;;;;;;;0.52;0.52;;;;;;;;;;4985643;28;20189;-90
2024/02/12 03:41:58;;;;;;;0.30;0.30;;;;;;;;;;4985247;28;20217;-91
2024/02/12 03:45:05;;;;;;;0.93;0.93;;;;;;;;;;4985118;28;20190;-89
2024/02/12 03:59:50;;;;;;;0.63;0.63;;;;;;;;;;4985741;28;20193;-90
2024/02/12 04:01:46;;;;;;;0.68;0.68;;;;;;;;;;4986186;28;20261;-92
2024/02/12 04:04:51;;;;;;;1.92;1.17;;;;;;;;;;4968406;28;20201;-90
2024/02/12 04:07:57;;;;;;;0.60;0.60;;;;;;;;;;4965368;28;20269;-89
2024/02/12 04:11:03;;;;;;;0.77;0.77;;;;;;;;;;4966048;29;20198;-88
2024/02/12 04:14:11;;;;;;;0.70;0.65;;;;;;;;;;4966451;29;20214;-90
2024/02/12 04:17:16;;;;;;;0.65;0.60;;;;;;;;;;4984914;28;20202;-91
2024/02/12 04:20:22;;;;;;;1.42;0.85;;;;;;;;;;4987500;28;20194;-89
2024/02/12 04:23:27;;;;;;;2.95;0.85;;;;;;;;;;4985574;28;20583;-90
2024/02/12 04:26:34;;;;;;;0.77;0.60;;;;;;;;;;4985203;28;20197;-90
2024/02/12 04:29:41;;;;;;;1.65;0.73;;;;;;;;;;4986891;28;20177;-91
2024/02/12 04:32:47;;;;;;;0.40;0.40;;;;;;;;;;4986616;28;20181;-92
2024/02/12 04:35:52;;;;;;;0.60;0.60;;;;;;;;;;4985963;28;20224;-91
2024/02/12 04:38:57;;;;;;;0.43;0.43;;;;;;;;;;4987522;28;20278;-92
2024/02/12 04:42:03;;;;;;;1.70;0.95;;;;;;;;;;4986081;28;20197;-90
2024/02/12 04:45:11;;;;;;;0.55;0.55;;;;;;;;;;4977972;28;20268;-89
2024/02/12 04:48:17;;;;;;;0.82;0.82;;;;;;;;;;4968340;28;20211;-92
2024/02/12 04:51:22;;;;;;;0.38;0.38;;;;;;;;;;4967422;28;20231;-89
2024/02/12 04:54:27;;;;;;;0.75;0.63;;;;;;;;;;4969378;29;20194;-91
2024/02/12 04:57:32;;;;;;;0.55;0.55;;;;;;;;;;4966828;29;20198;-90
2024/02/12 05:00:39;;;;;;;0.50;0.50;;;;;;;;;;4966296;28;20199;-90
2024/02/12 05:03:43;;;;;;;0.68;0.68;;;;;;;;;;4970039;28;20217;-90
2024/02/12 05:06:48;;;;;;;0.73;0.73;;;;;;;;;;4988955;28;20194;-88
2024/02/12 05:09:54;;;;;;;2.08;1.05;;;;;;;;;;4987800;28;20186;-90
2024/02/12 05:13:00;;;;;;;0.60;0.60;;;;;;;;;;4985626;28;20337;-90
2024/02/12 05:16:08;;;;;;;1.02;0.82;;;;;;;;;;4986297;28;20234;-87
2024/02/12 05:22:36;;;;;;;0.90;0.90;;;;;;;;;;4985962;28;20221;-89
2024/02/12 05:25:41;;;;;;;0.47;0.47;;;;;;;;;;4986062;28;20267;-89
2024/02/12 05:28:46;;;;;;;0.50;0.50;;;;;;;;;;4985265;28;20668;-90
2024/02/12 05:31:54;;;;;;;0.98;0.95;;;;;;;;;;4987338;28;20181;-89
2024/02/12 05:34:59;;;;;;;0.70;0.70;;;;;;;;;;4986835;28;20185;-92
2024/02/12 05:38:04;;;;;;;0.30;0.30;;;;;;;;;;4986278;28;20213;-91
2024/02/12 05:41:11;;;;;;;0.45;0.45;;;;;;;;;;4985846;28;20193;-92
2024/02/12 05:44:17;;;;;;;1.00;0.88;;;;;;;;;;4984824;28;20206;-91
2024/02/12 05:47:25;;;;;;;1.08;0.82;;;;;;;;;;4986574;28;20253;-92
2024/02/12 05:50:30;;;;;;;0.90;0.85;;;;;;;;;;4986534;28;20289;-91
2024/02/12 05:53:37;;;;;;;0.60;0.60;;;;;;;;;;4985509;28;20185;-92
2024/02/12 05:56:42;;;;;;;0.55;0.55;;;;;;;;;;4986719;28;20201;-91
2024/02/12 05:59:49;;;;;;;0.82;0.82;;;;;;;;;;4986578;28;20273;-89
2024/02/12 06:03:01;;;;;;;1.23;1.13;;;;;;;;;;4987185;28;20298;-89
2024/02/12 06:06:06;;;;;;;0.50;0.50;;;;;;;;;;4987658;28;20221;-91
2024/02/12 06:09:12;;;;;;;14.75;1.75;;;;;;;;;;4985328;28;20326;-89
2024/02/12 06:12:17;;;;;;;0.30;0.30;;;;;;;;;;4987187;28;20186;-91
2024/02/12 06:15:22;;;;;;;0.63;0.63;;;;;;;;;;4981318;28;20206;-89
2024/02/12 06:18:30;;;;;;;0.75;0.75;;;;;;;;;;4970218;28;20178;-89
2024/02/12 06:21:38;;;;;;;0.85;0.60;;;;;;;;;;4971322;28;20190;-92
2024/02/12 06:24:43;;;;;;;0.85;0.85;;;;;;;;;;4978890;28;20230;-90
2024/02/12 06:27:49;;;;;;;0.30;0.30;;;;;;;;;;4977098;28;20198;-91
2024/02/12 06:30:54;;;;;;;0.80;0.80;;;;;;;;;;4986880;28;20241;-89
2024/02/12 06:34:02;;;;;;;0.80;0.80;;;;;;;;;;4992750;28;20213;-89
2024/02/12 06:37:07;;;;;;;0.40;0.40;;;;;;;;;;4992099;28;20226;-91
2024/02/12 06:40:13;;;;;;;0.55;0.55;;;;;;;;;;4992795;28;20301;-91
2024/02/12 06:43:18;;;;;;;0.50;0.50;;;;;;;;;;4993849;28;20217;-92
2024/02/12 06:46:24;;;;;;;0.43;0.43;;;;;;;;;;4991216;28;20262;-91
2024/02/12 06:49:31;;;;;;;0.90;0.73;;;;;;;;;;4979722;28;20258;-91
2024/02/12 06:52:38;;;;;;;0.40;0.40;;;;;;;;;;4990578;28;20185;-91
2024/02/12 06:55:46;;;;;;;0.60;0.60;;;;;;;;;;4983757;28;20269;-91
2024/02/12 06:58:56;;;;;;;0.73;0.73;;;;;;;;;;4986606;28;20214;-90
2024/02/12 07:02:02;;;;;;;0.68;0.68;;;;;;;;;;4983904;28;20217;-90
2024/02/12 07:05:12;;;;;;;1.15;1.02;;;;;;;;;;4988624;28;20355;-90
2024/02/12 07:08:18;;;;;;;1.02;0.98;;;;;;;;;;4988940;28;20201;-91
2024/02/12 07:11:25;;;;;;;0.50;0.50;;;;;;;;;;4989819;28;20208;-92
2024/02/12 07:14:31;;;;;;;2.95;1.45;;;;;;;;;;4994148;28;20267;-90
2024/02/12 07:17:40;;;;;;;0.50;0.50;;;;;;;;;;4989130;28;20202;-91
2024/02/12 07:20:47;;;;;;;2.10;1.90;;;;;;;;;;5001620;28;20218;-87
2024/02/12 07:23:52;;;;;;;0.60;0.60;;;;;;;;;;4995473;28;20229;-92
2024/02/12 07:26:58;;;;;;;0.30;0.30;;;;;;;;;;4988928;28;20201;-90
2024/02/12 07:30:07;;;;;;;0.98;0.90;;;;;;;;;;4994969;28;20201;-91
2024/02/12 07:33:20;;;;;;;1.02;0.50;;;;;;;;;;5002658;28;20297;-90
2024/02/12 07:39:52;;;;;;;1.25;1.15;;;;;;;;;;4999172;28;20635;-92
2024/02/12 07:42:59;;;;;;;2.60;1.33;;;;;;;;;;5004575;28;20268;-90
2024/02/12 07:46:04;;;;;;;1.17;1.13;;;;;;;;;;4982647;28;20201;-90
2024/02/12 07:49:10;;;;;;;1.90;1.52;;;;;;;;;;4988963;28;20217;-91
2024/02/12 07:52:17;;;;;;;0.55;0.55;;;;;;;;;;4971394;28;20187;-91
2024/02/12 07:55:24;;;;;;;1.13;0.93;;;;;;;;;;4990966;28;20279;-90
2024/02/12 07:58:32;;;;;;;1.17;1.02;;;;;;;;;;4996271;28;20265;-90
2024/02/12 08:01:38;;;;;;;0.80;0.80;;;;;;;;;;4996320;28;20251;-91
2024/02/12 08:04:44;;;;;;;3.70;1.35;;;;;;;;;;4993700;28;20306;-90
2024/02/12 08:07:52;;;;;;;2.10;1.08;;;;;;;;;;4992601;28;20201;-92
2024/02/12 08:11:06;;;;;;;1.20;1.10;;;;;;;;;;4991137;28;20229;-91
2024/02/12 08:14:14;;;;;;;1.45;1.08;;;;;;;;;;4993244;28;20198;-92
2024/02/12 08:17:24;;;;;;;1.35;0.82;;;;;;;;;;5007887;28;20190;-90
2024/02/12 08:20:30;;;;;;;2.17;1.27;;;;;;;;;;5002305;28;20189;-90
2024/02/12 08:23:37;;;;;;;3.80;1.02;;;;;;;;;;4996506;28;20209;-90
2024/02/12 08:26:43;;;;;;;2.58;1.35;;;;;;;;;;4998765;28;20220;-90
2024/02/12 08:29:49;;;;;;;11.38;6.18;;;;;;;;;;4982414;28;20208;-92
2024/02/12 08:32:55;;;;;;;12.35;5.88;;;;;;;;;;5000384;28;20252;-93
2024/02/12 08:36:02;;;;;;;11.15;5.45;;;;;;;;;;4989482;28;20213;-90
2024/02/12 08:39:13;;;;;;;8.75;5.03;;;;;;;;;;5004640;28;20217;-91
2024/02/12 08:42:18;;;;;;;12.27;5.65;;;;;;;;;;4986834;28;20209;-90
2024/02/12 08:45:24;;;;;;;10.57;5.82;;;;;;;;;;4978098;28;20697;-90
2024/02/12 08:48:29;;;;;;;15.95;6.88;;;;;;;;;;4999345;28;20293;-92
2024/02/12 10:20:04;;;;;;;3.47;1.50;;;;;;;;;;5933988;22;20245;-89
2024/02/12 10:23:10;;;;;;;3.10;1.38;;;;;;;;;;4977018;28;20254;-90
2024/02/12 10:26:16;;;;;;;2.63;1.40;;;;;;;;;;4980236;28;20325;-90
2024/02/12 10:29:24;;;;;;;3.50;1.30;;;;;;;;;;5003561;28;20205;-88
2024/02/12 10:32:31;;;;;;;3.33;1.08;;;;;;;;;;4992285;28;20245;-91
2024/02/12 10:35:48;;;;;;;3.22;1.45;;;;;;;;;;4996233;28;20277;-89
2024/02/12 10:38:55;;;;;;;4.43;1.50;;;;;;;;;;4993865;28;20181;-89
2024/02/12 10:42:05;;;;;;;4.00;1.45;;;;;;;;;;4996989;28;20189;-90
2024/02/12 10:45:12;;;;;;;2.88;1.80;;;;;;;;;;5003796;28;20229;-88
2024/02/12 10:48:18;;;;;;;1.95;1.15;;;;;;;;;;4995814;28;20300;-90
2024/02/12 10:51:25;;;;;;;2.97;1.40;;;;;;;;;;4991028;28;20190;-91
2024/02/12 10:54:32;;;;;;;3.60;1.27;;;;;;;;;;5003337;28;20734;-89
2024/02/12 10:57:39;;;;;;;2.53;1.40;;;;;;;;;;4994644;28;20270;-89
2024/02/12 11:00:55;;;;;;;2.85;1.30;;;;;;;;;;4989216;28;20265;-90
2024/02/12 11:04:01;;;;;;;2.45;1.25;;;;;;;;;;4991181;28;20222;-90
2024/02/12 11:07:09;;;;;;;6.40;1.60;;;;;;;;;;4990803;28;20205;-91
2024/02/12 11:10:19;;;;;;;4.20;1.58;;;;;;;;;;4993329;28;20198;-89
2024/02/12 11:13:35;;;;;;;3.03;1.55;;;;;;;;;;4994166;28;20209;-91
2024/02/12 11:16:40;;;;;;;6.03;2.72;;;;;;;;;;4993877;28;20194;-90
2024/02/12 11:19:49;;;;;;;3.35;1.77;;;;;;;;;;4989489;28;20189;-91
2024/02/12 11:23:05;;;;;;;4.65;1.65;;;;;;;;;;4991889;28;20213;-92
2024/02/12 11:26:12;;;;;;;4.53;1.42;;;;;;;;;;5001697;28;20246;-90
2024/02/12 11:29:19;;;;;;;3.40;1.60;;;;;;;;;;5006821;28;20210;-90
2024/02/12 11:32:24;;;;;;;2.92;1.88;;;;;;;;;;4991922;28;20195;-91
2024/02/12 11:35:31;;;;;;;4.68;1.70;;;;;;;;;;4992858;28;20201;-92
2024/02/12 11:38:51;;;;;;;6.32;1.60;;;;;;;;;;4992296;28;20182;-91
2024/02/12 11:41:57;;;;;;;3.13;1.60;;;;;;;;;;4991545;28;20209;-92
2024/02/12 11:45:07;;;;;;;5.82;2.25;;;;;;;;;;4989226;28;20222;-93
2024/02/12 11:48:13;;;;;;;3.53;1.70;;;;;;;;;;4970497;28;20202;-91
2024/02/12 11:51:20;;;;;;;2.28;1.30;;;;;;;;;;5001870;28;20635;-91
2024/02/12 11:54:28;;;;;;;2.55;1.55;;;;;;;;;;5010588;28;20185;-91
2024/02/12 11:57:35;;;;;;;3.60;1.50;;;;;;;;;;5009919;28;20317;-91
2024/02/12 12:00:43;;;;;;;2.17;1.35;;;;;;;;;;5009073;28;20189;-90
2024/02/12 12:03:49;;;;;;;3.30;1.92;;;;;;;;;;5011736;28;20212;-91
2024/02/12 12:06:54;;;;;;;3.25;1.38;;;;;;;;;;5010142;28;20189;-91
2024/02/12 12:10:05;;;;;;;4.75;1.30;;;;;;;;;;5010392;28;20197;-89
2024/02/12 12:13:14;;;;;;;3.20;1.40;;;;;;;;;;5012982;28;20565;-91
2024/02/12 12:16:20;;;;;;;5.18;1.63;;;;;;;;;;5007971;28;20679;-92
2024/02/12 12:19:26;;;;;;;2.90;1.45;;;;;;;;;;5009784;28;20184;-91
2024/02/12 12:22:31;;;;;;;4.47;1.60;;;;;;;;;;5013044;28;20189;-90
2024/02/12 12:25:39;;;;;;;3.72;2.15;;;;;;;;;;5009015;28;20196;-89
2024/02/12 12:28:44;;;;;;;3.78;1.67;;;;;;;;;;5008882;28;20188;-89
2024/02/12 12:31:50;;;;;;;9.35;2.00;;;;;;;;;;5008025;28;20189;-89
2024/02/12 12:34:56;;;;;;;2.63;1.60;;;;;;;;;;5009850;28;20205;-91
2024/02/12 12:38:08;;;;;;;6.78;2.47;;;;;;;;;;5009120;28;20194;-89
2024/02/12 12:41:19;;;;;;;3.85;1.70;;;;;;;;;;5010464;28;20198;-92
2024/02/12 12:44:27;;;;;;;5.20;1.60;;;;;;;;;;5007268;28;20584;-90
2024/02/12 12:47:34;;;;;;;4.47;2.03;;;;;;;;;;5005967;28;20193;-92
2024/02/12 12:50:43;;;;;;;3.38;1.65;;;;;;;;;;5009588;28;20269;-90
2024/02/12 12:53:49;;;;;;;4.18;1.40;;;;;;;;;;5009013;28;20173;-91
2024/02/12 12:57:11;;;;;;;3.42;1.63;;;;;;;;;;5008125;28;20265;-90
2024/02/12 13:00:21;;;;;;;1.77;1.45;;;;;;;;;;5006784;28;20200;-91
2024/02/12 13:03:26;;;;;;;3.13;1.65;;;;;;;;;;5006657;28;20197;-90
2024/02/12 13:06:32;;;;;;;4.35;1.90;;;;;;;;;;5007571;28;20193;-91
2024/02/12 13:09:38;;;;;;;2.50;1.60;;;;;;;;;;5006983;28;20189;-91
2024/02/12 13:12:45;;;;;;;6.38;1.85;;;;;;;;;;5485865;22;20219;-89
2024/02/12 13:15:52;;;;;;;5.45;1.70;;;;;;;;;;4969574;29;20217;-89
2024/02/12 13:18:58;;;;;;;4.63;2.40;;;;;;;;;;4975720;28;20201;-89
2024/02/12 13:22:05;;;;;;;2.95;1.80;;;;;;;;;;4983645;28;20202;-91
2024/02/12 13:25:12;;;;;;;3.15;1.55;;;;;;;;;;4958925;29;20227;-91
2024/02/12 13:28:20;;;;;;;3.47;1.52;;;;;;;;;;4959602;29;20305;-91
2024/02/12 13:31:28;;;;;;;2.42;1.42;;;;;;;;;;4967528;29;20202;-91
2024/02/12 13:34:34;;;;;;;4.00;1.98;;;;;;;;;;4976426;28;20793;-90
2024/02/12 13:37:39;;;;;;;5.53;2.03;;;;;;;;;;4978384;28;20206;-91
2024/02/12 13:40:45;;;;;;;5.32;2.10;;;;;;;;;;4967241;29;20214;-92
2024/02/12 13:43:50;;;;;;;4.72;1.80;;;;;;;;;;4967586;29;20552;-91
2024/02/12 13:46:59;;;;;;;4.63;1.58;;;;;;;;;;4970127;28;20195;-91
2024/02/12 13:50:10;;;;;;;3.17;1.83;;;;;;;;;;4967131;28;20257;-90
2024/02/12 13:53:16;;;;;;;6.30;1.95;;;;;;;;;;4978202;28;20295;-90
2024/02/12 13:56:24;;;;;;;5.03;2.03;;;;;;;;;;4976986;28;20210;-90
2024/02/12 13:59:29;;;;;;;5.70;1.90;;;;;;;;;;4977129;28;20214;-89
2024/02/12 14:02:36;;;;;;;4.93;2.30;;;;;;;;;;4979787;28;20214;-92
2024/02/12 14:05:41;;;;;;;4.32;2.03;;;;;;;;;;4953546;29;20222;-90
2024/02/12 14:08:47;;;;;;;7.30;2.95;;;;;;;;;;4966423;28;20222;-90
2024/02/12 14:11:52;;;;;;;10.07;3.30;;;;;;;;;;4967527;28;20203;-91
2024/02/12 14:14:57;;;;;;;2.78;1.70;;;;;;;;;;4967319;29;20209;-90
2024/02/12 14:18:08;;;;;;;3.22;1.95;;;;;;;;;;4967858;28;20202;-93
2024/02/12 14:21:14;;;;;;;4.43;1.65;;;;;;;;;;4965981;29;20311;-90
2024/02/12 14:24:19;;;;;;;5.13;1.70;;;;;;;;;;4976725;28;20241;-89
2024/02/12 14:27:24;;;;;;;3.53;1.80;;;;;;;;;;4967803;28;20247;-91
2024/02/12 14:30:31;;;;;;;11.50;2.25;;;;;;;;;;4966000;29;20210;-90
2024/02/12 14:33:53;;;;;;;8.52;3.00;;;;;;;;;;4968802;29;20198;-91
2024/02/12 14:37:01;;;;;;;5.25;2.17;;;;;;;;;;4966248;29;20198;-91
2024/02/12 14:40:08;;;;;;;5.40;2.20;;;;;;;;;;4967462;29;20218;-87
2024/02/12 14:43:14;;;;;;;3.30;1.73;;;;;;;;;;4978640;28;20226;-91
2024/02/12 14:46:20;;;;;;;5.53;2.03;;;;;;;;;;4979861;28;20197;-91
2024/02/12 14:49:28;;;;;;;4.93;2.20;;;;;;;;;;4967863;28;20199;-89
2024/02/12 14:52:36;;;;;;;4.15;2.40;;;;;;;;;;4963105;28;20188;-90
2024/02/12 14:55:42;;;;;;;5.82;2.67;;;;;;;;;;4966400;28;20207;-87
2024/02/12 14:58:48;;;;;;;7.45;2.60;;;;;;;;;;4986244;28;20559;-90
2024/02/12 15:01:54;;;;;;;7.35;2.63;;;;;;;;;;4984111;28;20182;-89
2024/02/12 15:04:59;;;;;;;6.47;2.05;;;;;;;;;;4994452;28;20237;-91
2024/02/12 15:08:10;;;;;;;4.93;2.35;;;;;;;;;;4978240;28;20674;-90
2024/02/12 15:11:18;;;;;;;5.63;2.60;;;;;;;;;;4984423;28;20186;-89
2024/02/12 15:14:24;;;;;;;5.55;2.10;;;;;;;;;;4952026;29;20231;-91
2024/02/12 15:17:29;;;;;;;8.10;2.25;;;;;;;;;;4954191;29;20210;-90
2024/02/12 15:20:35;;;;;;;7.82;2.75;;;;;;;;;;4953029;29;20671;-90
2024/02/12 15:23:43;;;;;;;3.63;2.00;;;;;;;;;;4952993;28;20191;-90
2024/02/12 15:26:48;;;;;;;8.50;2.75;;;;;;;;;;4963901;29;20191;-89
2024/02/12 15:30:06;;;;;;;7.15;2.45;;;;;;;;;;4960251;28;20191;-92
2024/02/12 15:33:22;;;;;;;6.43;2.70;;;;;;;;;;4947240;29;20195;-89
2024/02/12 15:36:28;;;;;;;10.25;2.60;;;;;;;;;;4953386;29;20190;-91
2024/02/12 15:39:35;;;;;;;4.50;2.42;;;;;;;;;;4954595;29;20216;-91
2024/02/12 15:42:40;;;;;;;6.13;2.30;;;;;;;;;;4954849;28;20195;-89
2024/02/12 15:45:46;;;;;;;5.45;2.92;;;;;;;;;;4954039;28;20223;-90
2024/02/12 15:48:53;;;;;;;9.43;3.30;;;;;;;;;;4942080;29;20257;-90
2024/02/12 15:51:59;;;;;;;9.13;2.90;;;;;;;;;;4951181;28;20199;-91
2024/02/12 15:55:22;;;;;;;8.77;3.63;;;;;;;;;;4950035;29;20227;-88
2024/02/12 15:58:34;;;;;;;10.60;2.90;;;;;;;;;;4964531;28;20186;-91
2024/02/12 16:01:41;;;;;;;7.32;3.10;;;;;;;;;;4952823;28;20191;-91
2024/02/12 16:04:47;;;;;;;8.40;3.28;;;;;;;;;;4962693;28;20218;-90
2024/02/12 16:07:53;;;;;;;5.93;3.15;;;;;;;;;;4951024;28;20190;-91
2024/02/12 16:10:59;;;;;;;13.55;4.43;;;;;;;;;;4960621;28;20243;-91
2024/02/12 16:14:06;;;;;;;11.02;4.60;;;;;;;;;;4952375;28;20250;-90
2024/02/12 16:17:15;;;;;;;10.68;4.80;;;;;;;;;;4965218;28;20190;-90
2024/02/12 16:20:24;;;;;;;8.13;4.00;;;;;;;;;;4950941;29;20327;-91
2024/02/12 16:23:31;;;;;;;8.93;4.00;;;;;;;;;;4951258;28;20211;-93
2024/02/12 16:26:36;;;;;;;9.85;4.03;;;;;;;;;;4951379;29;20211;-88
2024/02/12 16:29:43;;;;;;;10.48;3.83;;;;;;;;;;4952063;28;20277;-91
2024/02/12 16:32:48;;;;;;;17.95;7.97;;;;;;;;;;4965245;29;20191;-89
2024/02/12 16:35:54;;;;;;;16.55;5.40;;;;;;;;;;4964551;28;20195;-90
2024/02/12 16:39:01;;;;;;;11.60;4.40;;;;;;;;;;4955473;28;20269;-90
2024/02/12 16:42:07;;;;;;;10.18;4.07;;;;;;;;;;4953867;28;20199;-88
2024/02/12 16:45:14;;;;;;;9.82;4.05;;;;;;;;;;4976916;28;20702;-90
2024/02/12 16:48:21;;;;;;;8.40;3.80;;;;;;;;;;4954147;28;20199;-90
2024/02/12 16:51:28;;;;;;;28.65;11.77;;;;;;;;;;4954017;29;20191;-92
2024/02/12 16:54:34;;;;;;;12.68;4.32;;;;;;;;;;4961273;28;20202;-92
2024/02/12 16:57:41;;;;;;;11.52;4.03;;;;;;;;;;4983317;28;20198;-90
2024/02/12 17:00:48;;;;;;;12.48;5.38;;;;;;;;;;4969349;28;20214;-90
2024/02/12 17:03:57;;;;;;;15.40;5.07;;;;;;;;;;4970854;28;20194;-90
2024/02/12 17:07:03;;;;;;;13.57;5.30;;;;;;;;;;4981300;28;20211;-91
2024/02/12 17:10:12;;;;;;;13.02;4.97;;;;;;;;;;4971645;28;20177;-93
2024/02/12 17:13:18;;;;;;;12.45;4.47;;;;;;;;;;4982620;28;20226;-90
2024/02/12 17:16:25;;;;;;;11.90;4.70;;;;;;;;;;4971163;28;20191;-89
2024/02/12 17:19:37;;;;;;;10.75;4.75;;;;;;;;;;4971993;28;20198;-91
2024/02/12 17:22:44;;;;;;;7.88;4.22;;;;;;;;;;4973763;28;20211;-90
2024/02/12 17:25:49;;;;;;;13.93;7.50;;;;;;;;;;4972175;28;20217;-90
2024/02/12 17:28:55;;;;;;;11.13;5.18;;;;;;;;;;4970541;28;20189;-90
2024/02/12 17:32:04;;;;;;;12.02;5.90;;;;;;;;;;4969264;28;20182;-91
2024/02/12 17:35:12;;;;;;;14.07;5.13;;;;;;;;;;4969599;28;20264;-90
2024/02/12 17:38:21;;;;;;;14.70;5.13;;;;;;;;;;4969888;28;20330;-91
2024/02/12 17:41:28;;;;;;;11.57;5.13;;;;;;;;;;4961497;28;20190;-91
2024/02/12 17:44:37;;;;;;;14.32;4.80;;;;;;;;;;4973007;28;20209;-90
2024/02/12 17:47:47;;;;;;;11.30;5.28;;;;;;;;;;4954391;28;20199;-93
2024/02/12 17:50:58;;;;;;;14.60;5.97;;;;;;;;;;4954451;28;20195;-90
2024/02/12 17:54:04;;;;;;;16.55;6.28;;;;;;;;;;4964300;28;20190;-91
2024/02/12 17:57:10;;;;;;;20.63;8.82;;;;;;;;;;4966191;28;20210;-90
2024/02/12 18:00:18;;;;;;;11.60;5.10;;;;;;;;;;4983810;28;20193;-93
2024/02/12 18:03:28;;;;;;;10.45;5.00;;;;;;;;;;4952600;28;20675;-90
2024/02/12 18:06:34;;;;;;;17.52;5.93;;;;;;;;;;4955250;29;20324;-91
2024/02/12 18:09:42;;;;;;;20.45;5.18;;;;;;;;;;4969037;28;20251;-92
2024/02/12 18:12:47;;;;;;;8.90;5.32;;;;;;;;;;4960240;28;20188;-92
2024/02/12 18:15:52;;;;;;;12.45;5.10;;;;;;;;;;4950512;28;20206;-92
2024/02/12 18:19:00;;;;;;;12.55;5.43;;;;;;;;;;4961161;28;20199;-91
2024/02/12 18:22:07;;;;;;;12.95;5.75;;;;;;;;;;4982599;28;20214;-91
2024/02/12 18:25:14;;;;;;;11.90;5.90;;;;;;;;;;4975796;28;20230;-91
2024/02/12 18:28:21;;;;;;;12.02;5.65;;;;;;;;;;4979774;28;20194;-89
2024/02/12 18:31:29;;;;;;;12.18;6.00;;;;;;;;;;4989566;28;20198;-92
2024/02/12 18:34:37;;;;;;;14.95;6.50;;;;;;;;;;4977456;28;20185;-91
2024/02/12 18:37:44;;;;;;;13.27;6.35;;;;;;;;;;4976537;28;20216;-91
2024/02/12 18:40:52;;;;;;;15.98;8.45;;;;;;;;;;4987039;28;20191;-92
2024/02/12 18:43:57;;;;;;;20.02;7.95;;;;;;;;;;4976780;28;20210;-93
2024/02/12 18:47:04;;;;;;;15.32;8.60;;;;;;;;;;4976648;28;20206;-92
2024/02/12 18:50:12;;;;;;;15.90;7.68;;;;;;;;;;4972917;28;20197;-90
2024/02/12 18:53:22;;;;;;;23.17;8.25;;;;;;;;;;4977661;28;20194;-90
2024/02/12 18:56:28;;;;;;;19.58;8.60;;;;;;;;;;4982965;28;20222;-90
2024/02/12 18:59:34;;;;;;;19.65;9.30;;;;;;;;;;4971334;28;20264;-90
2024/02/12 19:02:39;;;;;;;21.35;10.63;;;;;;;;;;4971669;28;20228;-90
2024/02/12 19:05:47;;;;;;;26.88;11.93;;;;;;;;;;4973182;28;20221;-90
2024/02/12 19:08:54;;;;;;;26.50;11.52;;;;;;;;;;4972781;28;20194;-91
2024/02/12 19:11:59;;;;;;;27.52;10.80;;;;;;;;;;4971477;28;20213;-93
2024/02/12 19:15:05;;;;;;;28.33;11.50;;;;;;;;;;4982843;28;20837;-91
2024/02/12 19:18:13;;;;;;;25.35;10.88;;;;;;;;;;4963730;29;20195;-94
2024/02/12 19:21:22;;;;;;;28.40;10.55;;;;;;;;;;4963884;28;20191;-91
2024/02/12 19:24:27;;;;;;;25.13;11.32;;;;;;;;;;4964300;28;20251;-90
2024/02/12 19:27:36;;;;;;;31.33;11.93;;;;;;;;;;4953956;28;20215;-92
2024/02/12 19:30:41;;;;;;;27.83;10.45;;;;;;;;;;4964268;28;20267;-93
2024/02/12 19:33:47;;;;;;;25.48;10.13;;;;;;;;;;4954694;28;20240;-91
2024/02/12 19:36:57;;;;;;;22.17;9.50;;;;;;;;;;4953654;28;20202;-91
2024/02/12 19:40:04;;;;;;;20.05;9.35;;;;;;;;;;4954024;28;20219;-91
2024/02/12 19:43:13;;;;;;;21.98;9.43;;;;;;;;;;4962900;28;20283;-90
2024/02/12 19:46:18;;;;;;;21.30;10.32;;;;;;;;;;4963358;28;20219;-93
2024/02/12 19:49:24;;;;;;;27.85;11.93;;;;;;;;;;4952339;28;20669;-91
2024/02/12 19:52:30;;;;;;;26.33;11.98;;;;;;;;;;4952297;28;20188;-92
2024/02/12 19:55:36;;;;;;;26.17;11.90;;;;;;;;;;4962977;28;20318;-91
2024/02/12 19:58:43;;;;;;;32.85;11.98;;;;;;;;;;4963707;29;20186;-90
2024/02/12 20:02:02;;;;;;;27.92;12.02;;;;;;;;;;4952568;29;20191;-92
2024/02/12 20:05:08;;;;;;;29.67;12.20;;;;;;;;;;4954727;28;20219;-90
2024/02/12 20:08:16;;;;;;;28.55;11.55;;;;;;;;;;4953907;29;20174;-91
2024/02/12 20:11:21;;;;;;;23.95;10.32;;;;;;;;;;4951992;29;20204;-90
2024/02/12 20:14:28;;;;;;;136.75;31.45;;;;;;;;;;4964605;28;20218;-91
2024/02/12 20:17:34;;;;;;;29.70;10.38;;;;;;;;;;4964291;29;20199;-90
2024/02/12 20:20:39;;;;;;;23.42;10.20;;;;;;;;;;4952926;29;20198;-89